createdAt,value
2018-02-23T00:00:55.847Z,52.69
2018-02-23T00:01:55.793Z,52.12
2018-02-23T00:02:55.739Z,51.93
2018-02-23T00:03:55.685Z,52.03
2018-02-23T00:04:55.631Z,51.93
2018-02-23T00:05:55.577Z,52.31
2018-02-23T00:06:55.524Z,52.12
2018-02-23T00:07:55.470Z,52.03
2018-02-23T00:08:55.417Z,51.93
2018-02-23T00:09:55.365Z,51.93
2018-02-23T00:10:55.308Z,52.31
2018-02-23T00:11:55.305Z,52.69
2018-02-23T00:12:55.202Z,52.79
2018-02-23T00:13:55.147Z,52.69
2018-02-23T00:14:55.093Z,52.22
2018-02-23T00:15:55.040Z,52.41
2018-02-23T00:16:54.992Z,52.60
2018-02-23T00:17:54.932Z,53.07
2018-02-23T00:18:54.878Z,52.98
2018-02-23T00:19:54.825Z,52.50
2018-02-23T00:20:54.772Z,52.88
2018-02-23T00:21:54.718Z,52.95
2018-02-23T00:22:54.664Z,53.23
2018-02-23T00:23:54.613Z,53.99
2018-02-23T00:24:54.558Z,53.99
2018-02-23T00:25:54.502Z,53.52
2018-02-23T00:26:54.449Z,53.61
2018-02-23T00:27:54.400Z,53.99
2018-02-23T00:28:54.342Z,53.80
2018-02-23T00:29:54.289Z,53.99
2018-02-23T00:30:54.235Z,53.70
2018-02-23T00:31:54.181Z,54.18
2018-02-23T00:32:54.128Z,53.99
2018-02-23T00:33:54.072Z,53.89
2018-02-23T00:34:54.069Z,53.80
2018-02-23T00:35:53.965Z,54.46
2018-02-23T00:36:53.912Z,54.18
2018-02-23T00:37:53.858Z,54.27
2018-02-23T00:38:53.803Z,54.46
2018-02-23T00:39:53.750Z,54.74
2018-02-23T00:40:53.696Z,54.65
2018-02-23T00:41:53.642Z,54.93
2018-02-23T00:42:53.589Z,54.93
2018-02-23T00:43:53.535Z,54.93
2018-02-23T00:44:53.482Z,55.03
2018-02-23T00:45:53.425Z,54.74
2018-02-23T00:46:53.423Z,55.22
2018-02-23T00:47:53.319Z,55.12
2018-02-23T00:48:53.265Z,55.60
2018-02-23T00:49:53.209Z,55.69
2018-02-23T00:50:53.156Z,55.79
2018-02-23T00:51:53.104Z,55.69
2018-02-23T00:52:53.053Z,55.98
2018-02-23T00:53:52.994Z,56.35
2018-02-23T00:54:52.941Z,56.54
2018-02-23T00:55:52.937Z,56.73
2018-02-23T00:56:52.833Z,57.01
2018-02-23T00:57:52.778Z,56.54
2018-02-23T00:58:52.743Z,56.54
2018-02-23T00:59:52.670Z,56.82
2018-02-23T01:00:52.617Z,56.82
2018-02-23T01:01:52.561Z,57.01
2018-02-23T01:02:52.508Z,57.11
2018-02-23T01:03:52.454Z,57.11
2018-02-23T01:04:52.400Z,57.39
2018-02-23T01:05:52.347Z,57.58
2018-02-23T01:06:52.292Z,57.87
2018-02-23T01:07:52.238Z,58.06
2018-02-23T01:08:52.184Z,57.77
2018-02-23T01:09:52.130Z,58.34
2018-02-23T01:10:52.075Z,58.34
2018-02-23T01:11:52.022Z,58.62
2018-02-23T01:12:51.969Z,58.44
2018-02-23T01:13:51.914Z,58.34
2018-02-23T01:14:51.860Z,58.53
2018-02-23T01:15:51.806Z,58.81
2018-02-23T01:16:51.752Z,58.81
2018-02-23T01:17:51.697Z,58.62
2018-02-23T01:18:51.643Z,58.50
2018-02-23T01:19:51.592Z,58.78
2018-02-23T01:20:51.536Z,58.62
2018-02-23T01:21:51.482Z,58.59
2018-02-23T01:22:51.426Z,58.69
2018-02-23T01:23:51.373Z,58.87
2018-02-23T01:24:51.319Z,59.16
2018-02-23T01:25:51.264Z,59.35
2018-02-23T01:26:51.209Z,59.25
2018-02-23T01:27:51.156Z,59.00
2018-02-23T01:28:51.103Z,58.97
2018-02-23T01:29:51.047Z,59.35
2018-02-23T01:30:50.993Z,59.38
2018-02-23T01:31:50.940Z,59.63
2018-02-23T01:32:50.888Z,59.54
2018-02-23T01:33:50.831Z,59.85
2018-02-23T01:34:50.777Z,60.14
2018-02-23T01:35:50.723Z,59.92
2018-02-23T01:36:50.669Z,60.04
2018-02-23T01:37:50.663Z,60.11
2018-02-23T01:38:50.559Z,59.73
2018-02-23T01:39:50.509Z,59.54
2018-02-23T01:40:50.451Z,59.63
2018-02-23T01:41:50.397Z,59.73
2018-02-23T01:42:50.343Z,60.01
2018-02-23T01:43:50.288Z,60.20
2018-02-23T01:44:50.235Z,59.92
2018-02-23T01:45:50.179Z,59.92
2018-02-23T01:46:50.126Z,59.92
2018-02-23T01:47:50.072Z,59.92
2018-02-23T01:48:50.017Z,59.73
2018-02-23T01:49:49.961Z,59.54
2018-02-23T01:50:49.907Z,59.82
2018-02-23T01:51:49.853Z,59.44
2018-02-23T01:52:49.799Z,59.63
2018-02-23T01:53:49.744Z,58.69
2018-02-23T01:54:49.724Z,59.25
2018-02-23T01:55:49.635Z,59.16
2018-02-23T01:56:49.581Z,58.97
2018-02-23T01:57:49.525Z,58.69
2018-02-23T01:58:49.470Z,58.40
2018-02-23T01:59:49.416Z,58.59
2018-02-23T02:00:49.362Z,58.69
2018-02-23T02:01:49.306Z,58.31
2018-02-23T02:02:49.257Z,58.59
2018-02-23T02:03:49.202Z,58.40
2018-02-23T02:04:49.144Z,58.69
2018-02-23T02:05:49.089Z,57.93
2018-02-23T02:06:49.034Z,58.03
2018-02-23T02:07:48.979Z,58.22
2018-02-23T02:08:48.925Z,57.84
2018-02-23T02:09:48.871Z,58.12
2018-02-23T02:10:48.814Z,57.74
2018-02-23T02:11:48.760Z,57.55
2018-02-23T02:12:48.706Z,57.18
2018-02-23T02:13:48.650Z,56.89
2018-02-23T02:14:48.595Z,57.18
2018-02-23T02:15:48.540Z,57.27
2018-02-23T02:16:48.487Z,57.37
2018-02-23T02:17:48.430Z,57.27
2018-02-23T02:18:48.376Z,57.18
2018-02-23T02:19:48.321Z,57.18
2018-02-23T02:20:48.285Z,56.89
2018-02-23T02:21:48.211Z,57.08
2018-02-23T02:22:48.156Z,56.61
2018-02-23T02:23:48.102Z,57.08
2018-02-23T02:24:48.047Z,56.89
2018-02-23T02:25:47.991Z,56.80
2018-02-23T02:26:47.937Z,56.89
2018-02-23T02:27:47.883Z,56.89
2018-02-23T02:28:47.827Z,56.99
2018-02-23T02:29:47.771Z,56.99
2018-02-23T02:30:47.718Z,56.99
2018-02-23T02:31:47.662Z,57.08
2018-02-23T02:32:47.610Z,56.99
2018-02-23T02:33:47.552Z,56.89
2018-02-23T02:34:47.498Z,57.18
2018-02-23T02:35:47.444Z,57.37
2018-02-23T02:36:47.389Z,57.37
2018-02-23T02:37:47.333Z,57.27
2018-02-23T02:38:47.278Z,57.37
2018-02-23T02:39:47.223Z,56.99
2018-02-23T02:40:47.169Z,57.18
2018-02-23T02:41:47.117Z,57.37
2018-02-23T02:42:47.060Z,57.46
2018-02-23T02:43:47.004Z,57.55
2018-02-23T02:44:46.949Z,57.74
2018-02-23T02:45:46.895Z,57.55
2018-02-23T02:46:46.844Z,57.65
2018-02-23T02:47:46.784Z,57.65
2018-02-23T02:48:46.731Z,57.84
2018-02-23T02:49:46.676Z,57.71
2018-02-23T02:50:46.619Z,58.00
2018-02-23T02:51:46.564Z,57.93
2018-02-23T02:52:46.510Z,57.53
2018-02-23T02:53:46.454Z,57.81
2018-02-23T02:54:46.402Z,57.53
2018-02-23T02:55:46.346Z,57.62
2018-02-23T02:56:46.291Z,57.81
2018-02-23T02:57:46.235Z,57.81
2018-02-23T02:58:46.184Z,58.12
2018-02-23T02:59:46.127Z,58.09
2018-02-23T03:00:46.079Z,57.90
2018-02-23T03:01:46.014Z,57.81
2018-02-23T03:02:45.960Z,57.90
2018-02-23T03:03:45.905Z,58.09
2018-02-23T03:04:45.853Z,58.18
2018-02-23T03:05:45.794Z,57.90
2018-02-23T03:06:45.740Z,58.00
2018-02-23T03:07:45.685Z,58.75
2018-02-23T03:08:45.632Z,58.56
2018-02-23T03:09:45.575Z,58.47
2018-02-23T03:10:45.520Z,58.47
2018-02-23T03:11:45.469Z,58.37
2018-02-23T03:12:45.410Z,58.37
2018-02-23T03:13:45.355Z,58.37
2018-02-23T03:14:45.302Z,58.75
2018-02-23T03:15:45.246Z,58.65
2018-02-23T03:16:45.191Z,58.65
2018-02-23T03:17:45.139Z,58.47
2018-02-23T03:18:45.080Z,59.13
2018-02-23T03:19:45.028Z,59.60
2018-02-23T03:20:44.971Z,59.22
2018-02-23T03:21:44.915Z,59.22
2018-02-23T03:22:44.861Z,59.51
2018-02-23T03:23:44.805Z,59.41
2018-02-23T03:24:44.751Z,59.89
2018-02-23T03:25:44.693Z,59.98
2018-02-23T03:26:44.640Z,60.08
2018-02-23T03:27:44.585Z,59.60
2018-02-23T03:28:44.530Z,59.79
2018-02-23T03:29:44.524Z,59.89
2018-02-23T03:30:44.421Z,60.64
2018-02-23T03:31:44.365Z,60.36
2018-02-23T03:32:44.310Z,60.55
2018-02-23T03:33:44.255Z,60.64
2018-02-23T03:34:44.199Z,60.64
2018-02-23T03:35:44.144Z,60.64
2018-02-23T03:36:44.089Z,60.74
2018-02-23T03:37:44.033Z,61.30
2018-02-23T03:38:43.978Z,61.02
2018-02-23T03:39:43.923Z,61.30
2018-02-23T03:40:43.868Z,61.11
2018-02-23T03:41:43.812Z,61.21
2018-02-23T03:42:43.757Z,61.68
2018-02-23T03:43:43.702Z,61.40
2018-02-23T03:44:43.647Z,61.77
2018-02-23T03:45:43.590Z,61.77
2018-02-23T03:46:43.535Z,61.77
2018-02-23T03:47:43.480Z,61.77
2018-02-23T03:48:43.425Z,61.77
2018-02-23T03:49:43.368Z,61.87
2018-02-23T03:50:43.314Z,61.87
2018-02-23T03:51:43.258Z,62.25
2018-02-23T03:52:43.207Z,62.06
2018-02-23T03:53:43.147Z,61.87
2018-02-23T03:54:43.095Z,61.77
2018-02-23T03:55:43.087Z,62.62
2018-02-23T03:56:43.036Z,62.25
2018-02-23T03:57:42.925Z,62.81
2018-02-23T03:58:42.869Z,62.53
2018-02-23T03:59:42.817Z,62.81
2018-02-23T04:00:42.760Z,62.91
2018-02-23T04:01:42.703Z,62.81
2018-02-23T04:02:42.648Z,62.81
2018-02-23T04:03:42.597Z,62.91
2018-02-23T04:04:42.539Z,63.57
2018-02-23T04:05:42.482Z,63.57
2018-02-23T04:06:42.427Z,63.29
2018-02-23T04:07:42.372Z,63.48
2018-02-23T04:08:42.317Z,63.00
2018-02-23T04:09:42.261Z,63.48
2018-02-23T04:10:42.206Z,63.48
2018-02-23T04:11:42.151Z,63.38
2018-02-23T04:12:42.096Z,63.67
2018-02-23T04:13:42.045Z,63.48
2018-02-23T04:14:41.984Z,64.32
2018-02-23T04:15:41.929Z,64.51
2018-02-23T04:16:41.874Z,64.42
2018-02-23T04:17:41.822Z,64.42
2018-02-23T04:18:41.763Z,64.70
2018-02-23T04:19:41.708Z,64.51
2018-02-23T04:20:41.652Z,64.61
2018-02-23T04:21:41.597Z,64.51
2018-02-23T04:22:41.541Z,64.70
2018-02-23T04:23:41.486Z,64.14
2018-02-23T04:24:41.431Z,64.42
2018-02-23T04:25:41.375Z,64.32
2018-02-23T04:26:41.320Z,64.51
2018-02-23T04:27:41.264Z,64.51
2018-02-23T04:28:41.210Z,64.32
2018-02-23T04:29:41.153Z,64.32
2018-02-23T04:30:41.098Z,64.04
2018-02-23T04:31:41.044Z,64.04
2018-02-23T04:32:40.991Z,64.42
2018-02-23T04:33:40.932Z,64.51
2018-02-23T04:34:40.877Z,64.23
2018-02-23T04:35:40.822Z,64.51
2018-02-23T04:36:40.767Z,64.61
2018-02-23T04:37:40.712Z,64.23
2018-02-23T04:38:40.656Z,64.70
2018-02-23T04:39:40.605Z,64.42
2018-02-23T04:40:40.549Z,64.89
2018-02-23T04:41:40.490Z,64.98
2018-02-23T04:42:40.435Z,65.27
2018-02-23T04:43:40.380Z,65.55
2018-02-23T04:44:40.325Z,64.98
2018-02-23T04:45:40.269Z,66.03
2018-02-23T04:46:40.214Z,65.65
2018-02-23T04:47:40.159Z,65.55
2018-02-23T04:48:40.103Z,66.31
2018-02-23T04:49:40.047Z,66.18
2018-02-23T04:50:39.992Z,66.18
2018-02-23T04:51:39.937Z,66.50
2018-02-23T04:52:39.882Z,66.88
2018-02-23T04:53:39.825Z,66.88
2018-02-23T04:54:39.771Z,67.03
2018-02-23T04:55:39.714Z,67.03
2018-02-23T04:56:39.659Z,67.13
2018-02-23T04:57:39.603Z,67.03
2018-02-23T04:58:39.547Z,66.94
2018-02-23T04:59:39.501Z,67.03
2018-02-23T05:00:39.436Z,67.41
2018-02-23T05:01:39.383Z,67.60
2018-02-23T05:02:39.325Z,67.50
2018-02-23T05:03:39.274Z,67.60
2018-02-23T05:04:39.214Z,68.16
2018-02-23T05:05:39.157Z,67.79
2018-02-23T05:06:39.102Z,67.60
2018-02-23T05:07:39.046Z,67.88
2018-02-23T05:08:38.991Z,67.97
2018-02-23T05:09:38.934Z,68.26
2018-02-23T05:10:38.878Z,68.07
2018-02-23T05:11:38.823Z,67.97
2018-02-23T05:12:38.767Z,67.79
2018-02-23T05:13:38.710Z,68.54
2018-02-23T05:14:38.657Z,68.35
2018-02-23T05:15:38.599Z,68.73
2018-02-23T05:16:38.547Z,68.54
2018-02-23T05:17:38.486Z,68.82
2018-02-23T05:18:38.434Z,68.82
2018-02-23T05:19:38.376Z,68.54
2018-02-23T05:20:38.319Z,68.54
2018-02-23T05:21:38.264Z,68.44
2018-02-23T05:22:38.207Z,68.73
2018-02-23T05:23:38.151Z,68.54
2018-02-23T05:24:38.095Z,68.44
2018-02-23T05:25:38.043Z,68.73
2018-02-23T05:26:37.986Z,68.63
2018-02-23T05:27:37.927Z,68.82
2018-02-23T05:28:37.872Z,68.63
2018-02-23T05:29:37.815Z,69.11
2018-02-23T05:30:37.762Z,69.11
2018-02-23T05:31:37.703Z,69.49
2018-02-23T05:32:37.648Z,69.20
2018-02-23T05:33:37.592Z,69.01
2018-02-23T05:34:37.537Z,69.11
2018-02-23T05:35:37.479Z,69.11
2018-02-23T05:36:37.423Z,69.01
2018-02-23T05:37:37.366Z,69.30
2018-02-23T05:38:37.310Z,69.11
2018-02-23T05:39:37.254Z,69.30
2018-02-23T05:40:37.201Z,69.20
2018-02-23T05:41:37.141Z,69.58
2018-02-23T05:42:37.124Z,69.58
2018-02-23T05:43:37.031Z,69.58
2018-02-23T05:44:36.974Z,69.20
2018-02-23T05:45:36.917Z,69.96
2018-02-23T05:46:36.860Z,70.43
2018-02-23T05:47:36.805Z,70.34
2018-02-23T05:48:36.748Z,69.58
2018-02-23T05:49:36.692Z,70.05
2018-02-23T05:50:36.636Z,69.96
2018-02-23T05:51:36.579Z,70.05
2018-02-23T05:52:36.525Z,70.15
2018-02-23T05:53:36.467Z,70.05
2018-02-23T05:54:36.411Z,69.96
2018-02-23T05:55:36.355Z,70.24
2018-02-23T05:56:36.299Z,70.15
2018-02-23T05:57:36.242Z,69.86
2018-02-23T05:58:36.189Z,70.24
2018-02-23T05:59:36.130Z,70.53
2018-02-23T06:00:36.074Z,70.34
2018-02-23T06:01:36.017Z,70.62
2018-02-23T06:02:35.961Z,70.81
2018-02-23T06:03:35.905Z,70.90
2018-02-23T06:04:35.848Z,71.09
2018-02-23T06:05:35.792Z,70.81
2018-02-23T06:06:35.737Z,71.09
2018-02-23T06:07:35.690Z,71.09
2018-02-23T06:08:35.623Z,70.90
2018-02-23T06:09:35.566Z,70.62
2018-02-23T06:10:35.510Z,70.81
2018-02-23T06:11:35.455Z,70.62
2018-02-23T06:12:35.399Z,70.81
2018-02-23T06:13:35.342Z,71.09
2018-02-23T06:14:35.285Z,71.09
2018-02-23T06:15:35.229Z,71.19
2018-02-23T06:16:35.173Z,71.09
2018-02-23T06:17:35.116Z,70.81
2018-02-23T06:18:35.060Z,70.72
2018-02-23T06:19:35.004Z,71.00
2018-02-23T06:20:34.949Z,71.19
2018-02-23T06:21:34.892Z,71.37
2018-02-23T06:22:34.841Z,71.66
2018-02-23T06:23:34.779Z,71.66
2018-02-23T06:24:34.723Z,71.56
2018-02-23T06:25:34.666Z,71.66
2018-02-23T06:26:34.609Z,71.66
2018-02-23T06:27:34.603Z,71.56
2018-02-23T06:28:34.497Z,71.84
2018-02-23T06:29:34.440Z,72.03
2018-02-23T06:30:34.383Z,71.75
2018-02-23T06:31:34.328Z,71.66
2018-02-23T06:32:34.271Z,71.66
2018-02-23T06:33:34.215Z,71.84
2018-02-23T06:34:34.165Z,71.66
2018-02-23T06:35:34.101Z,71.37
2018-02-23T06:36:34.045Z,71.09
2018-02-23T06:37:34.038Z,71.37
2018-02-23T06:38:33.932Z,71.28
2018-02-23T06:39:33.875Z,71.28
2018-02-23T06:40:33.820Z,70.72
2018-02-23T06:41:33.762Z,71.09
2018-02-23T06:42:33.706Z,70.90
2018-02-23T06:43:33.650Z,71.09
2018-02-23T06:44:33.594Z,70.90
2018-02-23T06:45:33.536Z,70.53
2018-02-23T06:46:33.481Z,70.53
2018-02-23T06:47:33.424Z,70.62
2018-02-23T06:48:33.368Z,70.62
2018-02-23T06:49:33.311Z,70.53
2018-02-23T06:50:33.256Z,70.34
2018-02-23T06:51:33.200Z,70.24
2018-02-23T06:52:33.145Z,70.34
2018-02-23T06:53:33.090Z,70.43
2018-02-23T06:54:33.030Z,70.53
2018-02-23T06:55:32.974Z,70.34
2018-02-23T06:56:32.919Z,69.77
2018-02-23T06:57:32.862Z,70.15
2018-02-23T06:58:32.806Z,70.05
2018-02-23T06:59:32.753Z,70.43
2018-02-23T07:00:32.695Z,69.96
2018-02-23T07:01:32.638Z,69.30
2018-02-23T07:02:32.582Z,69.49
2018-02-23T07:03:32.527Z,69.14
2018-02-23T07:04:32.471Z,69.14
2018-02-23T07:05:32.416Z,68.42
2018-02-23T07:06:32.359Z,67.66
2018-02-23T07:07:32.304Z,66.28
2018-02-23T07:08:32.256Z,64.99
2018-02-23T07:09:32.193Z,62.63
2018-02-23T07:10:32.137Z,61.11
2018-02-23T07:11:32.084Z,60.77
2018-02-23T07:12:32.031Z,59.72
2018-02-23T07:13:31.975Z,59.69
2018-02-23T07:14:31.922Z,59.69
2018-02-23T07:15:31.869Z,59.63
2018-02-23T07:16:31.815Z,58.68
2018-02-23T07:17:31.761Z,57.64
2018-02-23T07:18:31.708Z,56.82
2018-02-23T07:19:31.655Z,55.62
2018-02-23T07:20:31.603Z,54.86
2018-02-23T07:21:31.549Z,53.63
2018-02-23T07:22:31.497Z,53.27
2018-02-23T07:23:31.445Z,52.04
2018-02-23T07:24:31.393Z,50.93
2018-02-23T07:25:31.341Z,49.82
2018-02-23T07:26:31.291Z,48.86
2018-02-23T07:27:31.240Z,47.85
2018-02-23T07:28:31.196Z,47.30
2018-02-23T07:29:31.139Z,46.83
2018-02-23T07:30:31.089Z,46.09
2018-02-23T07:31:31.039Z,44.95
2018-02-23T07:32:30.990Z,44.12
2018-02-23T07:33:30.941Z,43.16
2018-02-23T07:34:30.891Z,42.50
2018-02-23T07:35:30.843Z,42.02
2018-02-23T07:36:30.795Z,41.74
2018-02-23T07:37:30.749Z,41.05
2018-02-23T07:38:30.698Z,40.67
2018-02-23T07:39:30.657Z,40.77
2018-02-23T07:40:30.603Z,39.81
2018-02-23T07:41:30.555Z,40.08
2018-02-23T07:42:30.508Z,40.27
2018-02-23T07:43:30.460Z,40.37
2018-02-23T07:44:30.414Z,40.72
2018-02-23T07:45:30.366Z,40.53
2018-02-23T07:46:30.324Z,40.53
2018-02-23T07:47:30.273Z,40.63
2018-02-23T07:48:30.224Z,40.82
2018-02-23T07:49:30.176Z,40.65
2018-02-23T07:50:30.132Z,40.27
2018-02-23T07:51:30.082Z,39.61
2018-02-23T07:52:30.043Z,39.23
2018-02-23T07:53:29.988Z,38.96
2018-02-23T07:54:29.942Z,38.68
2018-02-23T07:55:29.901Z,38.12
2018-02-23T07:56:29.849Z,37.65
2018-02-23T07:57:29.801Z,37.18
2018-02-23T07:58:29.757Z,36.91
2018-02-23T07:59:29.709Z,36.64
2018-02-23T08:00:29.663Z,35.88
2018-02-23T08:01:29.620Z,35.61
2018-02-23T08:02:29.572Z,35.42
2018-02-23T08:03:29.527Z,34.77
2018-02-23T08:04:29.480Z,34.39
2018-02-23T08:05:29.435Z,34.39
2018-02-23T08:06:29.391Z,33.84
2018-02-23T08:07:29.347Z,33.36
2018-02-23T08:08:29.303Z,33.18
2018-02-23T08:09:29.258Z,32.90
2018-02-23T08:10:29.215Z,32.32
2018-02-23T08:11:29.171Z,31.96
2018-02-23T08:12:29.128Z,31.58
2018-02-23T08:13:29.131Z,31.29
2018-02-23T08:14:29.043Z,30.71
2018-02-23T08:15:28.996Z,30.61
2018-02-23T08:16:28.957Z,30.52
2018-02-23T08:17:28.910Z,30.61
2018-02-23T08:18:28.868Z,30.32
2018-02-23T08:19:28.825Z,30.42
2018-02-23T08:20:28.786Z,30.71
2018-02-23T08:21:28.739Z,30.32
2018-02-23T08:22:28.696Z,29.56
2018-02-23T08:23:28.660Z,29.85
2018-02-23T08:24:28.611Z,29.48
2018-02-23T08:25:28.568Z,29.58
2018-02-23T08:26:28.573Z,29.21
2018-02-23T08:27:28.484Z,29.11
2018-02-23T08:28:28.441Z,28.54
2018-02-23T08:29:28.398Z,28.44
2018-02-23T08:30:28.357Z,28.35
2018-02-23T08:31:28.319Z,28.35
2018-02-23T08:32:28.274Z,28.36
2018-02-23T08:33:28.232Z,28.08
2018-02-23T08:34:28.190Z,27.90
2018-02-23T08:35:28.149Z,27.14
2018-02-23T08:36:28.106Z,26.74
2018-02-23T08:37:28.066Z,26.93
2018-02-23T08:38:28.024Z,26.84
2018-02-23T08:39:27.983Z,26.64
2018-02-23T08:40:27.940Z,26.45
2018-02-23T08:41:27.900Z,26.64
2018-02-23T08:42:27.858Z,26.93
2018-02-23T08:43:27.820Z,26.84
2018-02-23T08:44:27.776Z,26.64
2018-02-23T08:45:27.736Z,26.63
2018-02-23T08:46:27.693Z,26.25
2018-02-23T08:47:27.652Z,26.06
2018-02-23T08:48:27.612Z,26.34
2018-02-23T08:49:27.570Z,26.73
2018-02-23T08:50:27.537Z,26.63
2018-02-23T08:51:27.498Z,26.63
2018-02-23T08:52:27.447Z,26.55
2018-02-23T08:53:27.405Z,26.17
2018-02-23T08:54:27.364Z,26.18
2018-02-23T08:55:27.324Z,25.42
2018-02-23T08:56:27.283Z,25.33
2018-02-23T08:57:27.242Z,25.33
2018-02-23T08:58:27.202Z,24.68
2018-02-23T08:59:27.161Z,24.58
2018-02-23T09:00:27.129Z,24.49
2018-02-23T09:01:27.080Z,24.29
2018-02-23T09:02:27.040Z,23.43
2018-02-23T09:03:26.998Z,23.91
2018-02-23T09:04:26.960Z,24.01
2018-02-23T09:05:26.920Z,23.90
2018-02-23T09:06:26.880Z,23.61
2018-02-23T09:07:26.840Z,24.27
2018-02-23T09:08:26.800Z,24.74
2018-02-23T09:09:26.758Z,24.27
2018-02-23T09:10:26.719Z,24.08
2018-02-23T09:11:26.679Z,24.19
2018-02-23T09:12:26.642Z,23.79
2018-02-23T09:13:26.599Z,23.80
2018-02-23T09:14:26.560Z,23.52
2018-02-23T09:15:26.519Z,23.98
2018-02-23T09:16:26.478Z,24.23
2018-02-23T09:17:26.437Z,25.26
2018-02-23T09:18:26.400Z,26.29
2018-02-23T09:19:26.355Z,27.22
2018-02-23T09:20:26.318Z,28.63
2018-02-23T09:21:26.272Z,28.92
2018-02-23T09:22:26.230Z,29.41
2018-02-23T09:23:26.188Z,29.03
2018-02-23T09:24:26.146Z,28.66
2018-02-23T09:25:26.203Z,28.39
2018-02-23T09:26:26.061Z,27.64
2018-02-23T09:27:26.019Z,26.98
2018-02-23T09:28:25.976Z,26.52
2018-02-23T09:29:25.936Z,25.67
2018-02-23T09:30:25.891Z,25.10
2018-02-23T09:31:25.877Z,25.12
2018-02-23T09:32:25.806Z,24.35
2018-02-23T09:33:25.766Z,24.18
2018-02-23T09:34:25.722Z,23.79
2018-02-23T09:35:25.681Z,23.33
2018-02-23T09:36:25.640Z,23.69
2018-02-23T09:37:25.597Z,23.50
2018-02-23T09:38:25.556Z,23.49
2018-02-23T09:39:25.515Z,23.86
2018-02-23T09:40:25.473Z,24.52
2018-02-23T09:41:25.431Z,24.69
2018-02-23T09:42:25.390Z,25.16
2018-02-23T09:43:25.348Z,25.54
2018-02-23T09:44:25.306Z,26.58
2018-02-23T09:45:25.265Z,26.56
2018-02-23T09:46:25.222Z,27.03
2018-02-23T09:47:25.180Z,27.97
2018-02-23T09:48:25.138Z,28.23
2018-02-23T09:49:25.094Z,29.55
2018-02-23T09:50:25.051Z,30.01
2018-02-23T09:51:25.009Z,30.49
2018-02-23T09:52:24.966Z,31.71
2018-02-23T09:53:24.918Z,32.46
2018-02-23T09:54:24.877Z,32.64
2018-02-23T09:55:24.831Z,33.50
2018-02-23T09:56:24.786Z,33.87
2018-02-23T09:57:24.740Z,34.25
2018-02-23T09:58:24.693Z,34.14
2018-02-23T09:59:24.647Z,34.99
2018-02-23T10:00:24.603Z,35.47
2018-02-23T10:01:24.555Z,36.04
2018-02-23T10:02:24.508Z,35.75
2018-02-23T10:03:24.461Z,35.85
2018-02-23T10:04:24.415Z,36.11
2018-02-23T10:05:24.367Z,36.40
2018-02-23T10:06:24.318Z,36.78
2018-02-23T10:07:24.271Z,37.06
2018-02-23T10:08:24.224Z,37.06
2018-02-23T10:09:24.174Z,37.54
2018-02-23T10:10:24.133Z,37.63
2018-02-23T10:11:24.078Z,37.25
2018-02-23T10:12:24.030Z,37.63
2018-02-23T10:13:23.980Z,37.54
2018-02-23T10:14:23.934Z,37.25
2018-02-23T10:15:23.883Z,37.61
2018-02-23T10:16:23.833Z,37.71
2018-02-23T10:17:23.784Z,37.99
2018-02-23T10:18:23.744Z,38.09
2018-02-23T10:19:23.685Z,38.37
2018-02-23T10:20:23.636Z,38.28
2018-02-23T10:21:23.584Z,38.46
2018-02-23T10:22:23.534Z,38.45
2018-02-23T10:23:23.485Z,39.01
2018-02-23T10:24:23.434Z,39.11
2018-02-23T10:25:23.384Z,39.39
2018-02-23T10:26:23.334Z,39.39
2018-02-23T10:27:23.284Z,39.77
2018-02-23T10:28:23.233Z,39.49
2018-02-23T10:29:23.182Z,39.49
2018-02-23T10:30:23.132Z,39.32
2018-02-23T10:31:23.081Z,39.32
2018-02-23T10:32:23.031Z,39.32
2018-02-23T10:33:23.032Z,39.13
2018-02-23T10:34:22.928Z,39.13
2018-02-23T10:35:22.880Z,39.22
2018-02-23T10:36:22.827Z,38.94
2018-02-23T10:37:22.776Z,38.94
2018-02-23T10:38:22.724Z,38.94
2018-02-23T10:39:22.674Z,38.75
2018-02-23T10:40:22.624Z,38.56
2018-02-23T10:41:22.582Z,38.65
2018-02-23T10:42:22.530Z,38.75
2018-02-23T10:43:22.472Z,38.56
2018-02-23T10:44:22.422Z,38.65
2018-02-23T10:45:22.370Z,38.65
2018-02-23T10:46:22.320Z,38.75
2018-02-23T10:47:22.269Z,38.75
2018-02-23T10:48:22.219Z,38.84
2018-02-23T10:49:22.167Z,38.75
2018-02-23T10:50:22.116Z,39.22
2018-02-23T10:51:22.066Z,39.03
2018-02-23T10:52:22.016Z,39.13
2018-02-23T10:53:21.964Z,39.13
2018-02-23T10:54:21.912Z,39.41
2018-02-23T10:55:21.865Z,39.13
2018-02-23T10:56:21.812Z,39.32
2018-02-23T10:57:21.760Z,39.60
2018-02-23T10:58:21.709Z,39.39
2018-02-23T10:59:21.657Z,39.68
2018-02-23T11:00:21.607Z,40.06
2018-02-23T11:01:21.555Z,40.15
2018-02-23T11:02:21.504Z,40.25
2018-02-23T11:03:21.454Z,40.34
2018-02-23T11:04:21.405Z,40.63
2018-02-23T11:05:21.350Z,40.63
2018-02-23T11:06:21.300Z,40.63
2018-02-23T11:07:21.298Z,40.81
2018-02-23T11:08:21.203Z,40.72
2018-02-23T11:09:21.145Z,40.81
2018-02-23T11:10:21.094Z,40.81
2018-02-23T11:11:21.044Z,40.44
2018-02-23T11:12:20.992Z,41.00
2018-02-23T11:13:20.939Z,41.09
2018-02-23T11:14:20.937Z,41.38
2018-02-23T11:15:20.836Z,41.28
2018-02-23T11:16:20.785Z,41.66
2018-02-23T11:17:20.733Z,41.85
2018-02-23T11:18:20.682Z,41.66
2018-02-23T11:19:20.630Z,41.76
2018-02-23T11:20:20.582Z,41.47
2018-02-23T11:21:20.536Z,41.66
2018-02-23T11:22:20.475Z,41.47
2018-02-23T11:23:20.424Z,41.57
2018-02-23T11:24:20.373Z,41.47
2018-02-23T11:25:20.319Z,41.66
2018-02-23T11:26:20.267Z,42.04
2018-02-23T11:27:20.216Z,42.11
2018-02-23T11:28:20.170Z,42.88
2018-02-23T11:29:20.112Z,42.59
2018-02-23T11:30:20.060Z,42.50
2018-02-23T11:31:20.007Z,42.69
2018-02-23T11:32:19.957Z,42.52
2018-02-23T11:33:19.904Z,42.52
2018-02-23T11:34:19.852Z,42.61
2018-02-23T11:35:19.799Z,42.69
2018-02-23T11:36:19.749Z,42.50
2018-02-23T11:37:19.696Z,42.59
2018-02-23T11:38:19.649Z,42.59
2018-02-23T11:39:19.594Z,42.40
2018-02-23T11:40:19.540Z,42.59
2018-02-23T11:41:19.487Z,42.69
2018-02-23T11:42:19.452Z,42.59
2018-02-23T11:43:19.383Z,42.59
2018-02-23T11:44:19.332Z,42.69
2018-02-23T11:45:19.279Z,42.99
2018-02-23T11:46:19.228Z,42.99
2018-02-23T11:47:19.176Z,42.80
2018-02-23T11:48:19.122Z,42.80
2018-02-23T11:49:19.070Z,43.37
2018-02-23T11:50:19.041Z,42.80
2018-02-23T11:51:18.967Z,42.61
2018-02-23T11:52:18.916Z,42.61
2018-02-23T11:53:18.863Z,42.71
2018-02-23T11:54:18.812Z,42.80
2018-02-23T11:55:18.760Z,42.52
2018-02-23T11:56:18.708Z,42.23
2018-02-23T11:57:18.656Z,42.14
2018-02-23T11:58:18.605Z,41.85
2018-02-23T11:59:18.553Z,41.76
2018-02-23T12:00:18.502Z,41.95
2018-02-23T12:01:18.449Z,41.95
2018-02-23T12:02:18.398Z,41.95
2018-02-23T12:03:18.346Z,41.76
2018-02-23T12:04:18.294Z,41.47
2018-02-23T12:05:18.242Z,41.47
2018-02-23T12:06:18.191Z,41.47
2018-02-23T12:07:18.143Z,41.47
2018-02-23T12:08:18.088Z,41.47
2018-02-23T12:09:18.035Z,41.57
2018-02-23T12:10:17.982Z,41.66
2018-02-23T12:11:17.934Z,41.76
2018-02-23T12:12:17.880Z,41.85
2018-02-23T12:13:17.826Z,41.38
2018-02-23T12:14:17.776Z,41.47
2018-02-23T12:15:17.725Z,41.28
2018-02-23T12:16:17.674Z,41.19
2018-02-23T12:17:17.620Z,41.00
2018-02-23T12:18:17.569Z,40.91
2018-02-23T12:19:17.517Z,40.72
2018-02-23T12:20:17.466Z,40.63
2018-02-23T12:21:17.484Z,40.72
2018-02-23T12:22:17.362Z,40.25
2018-02-23T12:23:17.310Z,40.25
2018-02-23T12:24:17.259Z,40.25
2018-02-23T12:25:17.206Z,40.34
2018-02-23T12:26:17.154Z,40.44
2018-02-23T12:27:17.103Z,40.44
2018-02-23T12:28:17.051Z,40.63
2018-02-23T12:29:16.999Z,40.34
2018-02-23T12:30:16.949Z,40.63
2018-02-23T12:31:16.894Z,40.53
2018-02-23T12:32:16.844Z,40.63
2018-02-23T12:33:16.792Z,40.44
2018-02-23T12:34:16.740Z,40.44
2018-02-23T12:35:16.688Z,40.34
2018-02-23T12:36:16.638Z,40.15
2018-02-23T12:37:16.584Z,39.87
2018-02-23T12:38:16.532Z,39.96
2018-02-23T12:39:16.479Z,39.96
2018-02-23T12:40:16.431Z,40.15
2018-02-23T12:41:16.376Z,40.25
2018-02-23T12:42:16.324Z,40.15
2018-02-23T12:43:16.274Z,40.34
2018-02-23T12:44:16.220Z,40.63
2018-02-23T12:45:16.168Z,40.53
2018-02-23T12:46:16.116Z,40.53
2018-02-23T12:47:16.063Z,40.63
2018-02-23T12:48:16.011Z,40.63
2018-02-23T12:49:15.962Z,40.81
2018-02-23T12:50:15.912Z,40.72
2018-02-23T12:51:15.856Z,40.25
2018-02-23T12:52:15.804Z,40.72